Terminal Aerodrome Forecast
Issued by NWS Twin Cities, MN

Home | Current Version | Previous Version | Text Only | Print | Product List | Glossary Off
Versions: 1 2 3 4 5 6 7 8 9 10 11 12 13 14 15 16 17 18 19 20 21 22 23 24

000
FTUS43 KMPX 011700
TAFMSP
TAF
KMSP 011733Z 0118/0224 30006KT P6SM SCT050
     FM012000 32006KT P6SM VCTS SCT040CB BKN070
     FM020000 05004KT P6SM FEW050
     FM020400 15003KT P6SM SKC
     FM021500 18006KT P6SM SCT050 BKN150=

USA.gov is the U.S. government's official web portal to all federal, state and local government web resources and services.